Time;durP1;ratioP1;P1;durP2;ratioP2;P2;SDS_P1;SDS_P2;PMS_P1;PMS_P2;Temp;Humidity;BMP_temperature;BMP_pressure;BME280_temperature;BME280_humidity;BME280_pressure;Samples;Min_cycle;Max_cycle;Signal;HPM_P1;HPM_P2
2022/08/04 00:01:15;;;;;;;2.37;1.80;;;;;;;24.79;45.63;98351.78;5029905;28;20220;-56
2022/08/04 00:03:46;;;;;;;2.92;2.05;;;;;;;24.75;45.68;98354.16;5027543;28;20221;-56
2022/08/04 00:06:21;;;;;;;2.25;1.83;;;;;;;24.67;46.19;98354.56;5027297;28;20230;-55
2022/08/04 00:08:50;;;;;;;4.40;1.90;;;;;;;24.59;47.05;98355.81;5031046;28;20227;-55
2022/08/04 00:11:21;;;;;;;4.53;1.90;;;;;;;24.42;47.06;98355.06;5024738;28;20297;-56
2022/08/04 00:13:55;;;;;;;2.08;1.88;;;;;;;24.29;47.54;98346.41;5028877;28;20190;-56
2022/08/04 00:16:23;;;;;;;5.83;2.00;;;;;;;24.17;47.51;98343.84;5026887;28;20190;-56
2022/08/04 00:18:53;;;;;;;2.00;1.83;;;;;;;24.09;47.91;98346.94;5026312;28;20261;-56
2022/08/04 00:21:21;;;;;;;3.63;1.80;;;;;;;23.98;48.20;98359.28;5024817;28;20209;-56
2022/08/04 00:23:49;;;;;;;2.25;1.90;;;;;;;23.88;48.18;98348.50;5025012;28;20200;-56
2022/08/04 00:26:16;;;;;;;3.43;1.87;;;;;;;23.82;48.15;98360.94;5025826;28;20189;-56
2022/08/04 00:28:43;;;;;;;3.33;1.90;;;;;;;23.74;48.48;98358.69;5026372;28;20229;-56
2022/08/04 00:31:14;;;;;;;4.07;1.80;;;;;;;23.64;49.24;98350.53;5027310;28;20253;-57
2022/08/04 00:33:44;;;;;;;1.80;1.60;;;;;;;23.63;49.80;98352.38;5027413;28;20185;-57
2022/08/04 00:36:11;;;;;;;4.27;2.20;;;;;;;23.51;49.67;98352.47;5029022;28;20203;-57
2022/08/04 00:38:40;;;;;;;4.90;2.17;;;;;;;23.46;49.60;98352.41;5029897;28;20212;-57
2022/08/04 00:41:22;;;;;;;2.13;1.90;;;;;;;23.37;49.89;98359.97;5024569;28;20250;-56
2022/08/04 00:44:08;;;;;;;3.53;2.20;;;;;;;23.27;50.59;98362.47;5026195;28;20255;-56
2022/08/04 00:46:50;;;;;;;4.13;2.08;;;;;;;23.19;51.64;98357.53;5025133;28;20192;-56
2022/08/04 00:49:40;;;;;;;4.37;2.00;;;;;;;23.10;51.61;98357.91;5024061;28;20213;-55
2022/08/04 00:52:21;;;;;;;2.50;2.20;;;;;;;23.01;51.74;98367.31;5027572;28;20562;-56
2022/08/04 00:55:03;;;;;;;3.97;1.80;;;;;;;22.95;52.04;98361.09;5022185;28;20188;-56
2022/08/04 00:57:43;;;;;;;2.03;1.80;;;;;;;22.85;52.15;98355.56;5024830;28;20197;-54
2022/08/04 01:00:15;;;;;;;2.30;1.90;;;;;;;22.80;52.71;98361.63;5023227;28;20203;-55
2022/08/04 01:03:01;;;;;;;2.33;1.70;;;;;;;22.73;52.31;98362.81;5021240;28;20189;-55
2022/08/04 01:05:40;;;;;;;2.07;1.83;;;;;;;22.63;52.59;98369.56;5023253;28;20203;-55
2022/08/04 01:08:19;;;;;;;3.53;2.10;;;;;;;22.60;53.08;98377.19;5023036;28;20216;-56
2022/08/04 01:10:58;;;;;;;3.60;1.83;;;;;;;22.51;53.34;98371.44;5021551;28;20196;-54
2022/08/04 01:13:59;;;;;;;3.47;2.60;;;;;;;22.41;54.24;98378.13;5028158;28;20218;-56
2022/08/04 01:16:27;;;;;;;4.97;2.30;;;;;;;22.40;54.59;98381.84;5019516;28;20298;-56
2022/08/04 01:19:00;;;;;;;2.67;2.20;;;;;;;22.33;54.85;98378.50;5027054;28;20635;-56
2022/08/04 01:21:59;;;;;;;3.43;2.10;;;;;;;22.26;55.44;98375.16;5027414;28;20192;-55
2022/08/04 01:24:38;;;;;;;6.63;2.40;;;;;;;22.18;55.62;98364.88;5027074;28;20193;-55
2022/08/04 01:27:09;;;;;;;2.47;2.27;;;;;;;22.13;55.85;98370.91;5024838;28;20196;-56
2022/08/04 01:29:43;;;;;;;3.17;2.60;;;;;;;22.09;56.04;98369.75;5022912;28;20297;-56
2022/08/04 01:32:16;;;;;;;3.30;2.63;;;;;;;22.03;56.54;98373.31;5022327;28;20221;-56
2022/08/04 01:34:53;;;;;;;2.50;2.30;;;;;;;21.95;56.24;98374.47;5007032;28;20208;-56
2022/08/04 01:37:34;;;;;;;2.43;2.03;;;;;;;21.89;56.13;98365.59;5023234;28;20198;-56
2022/08/04 01:40:05;;;;;;;2.50;2.30;;;;;;;21.85;56.22;98367.09;5022892;28;20243;-56
2022/08/04 01:42:33;;;;;;;3.03;2.53;;;;;;;21.81;56.51;98363.28;5025746;28;20188;-56
2022/08/04 01:45:04;;;;;;;2.50;2.30;;;;;;;21.78;56.79;98364.53;4979336;28;1323302;-56
2022/08/04 01:47:34;;;;;;;2.90;2.60;;;;;;;21.78;57.21;98364.53;5023966;28;20214;-56
2022/08/04 01:50:06;;;;;;;3.83;2.37;;;;;;;21.75;57.14;98364.19;5030925;28;20588;-56
2022/08/04 01:52:35;;;;;;;4.23;2.40;;;;;;;21.72;57.29;98360.16;5026411;28;20211;-56
2022/08/04 01:55:04;;;;;;;3.90;2.20;;;;;;;21.71;57.23;98360.38;5024471;28;20251;-56
2022/08/04 01:57:33;;;;;;;7.50;2.40;;;;;;;21.66;57.51;98359.22;5025258;28;20180;-56
2022/08/04 02:00:02;;;;;;;2.47;2.27;;;;;;;21.59;57.29;98353.19;5028101;28;20688;-57
2022/08/04 02:02:30;;;;;;;3.57;2.80;;;;;;;21.62;57.75;98359.88;5021871;28;20195;-56
2022/08/04 02:04:57;;;;;;;3.90;2.47;;;;;;;21.56;57.71;98369.56;5026567;28;20252;-56
2022/08/04 02:07:35;;;;;;;3.00;2.60;;;;;;;21.51;57.66;98364.97;5024918;28;20207;-56
2022/08/04 02:10:06;;;;;;;3.20;2.60;;;;;;;21.54;57.63;98369.00;5020628;28;20668;-56
2022/08/04 02:12:45;;;;;;;2.77;2.50;;;;;;;21.49;57.71;98368.88;5026064;28;20293;-56
2022/08/04 02:15:21;;;;;;;2.60;2.40;;;;;;;21.47;57.69;98363.78;5021541;28;20327;-56
2022/08/04 02:17:56;;;;;;;2.60;2.20;;;;;;;21.41;57.86;98359.41;5022132;28;20667;-56
2022/08/04 02:20:24;;;;;;;2.47;2.27;;;;;;;21.38;58.40;98359.84;5020256;28;20231;-55
2022/08/04 02:22:57;;;;;;;4.53;2.43;;;;;;;21.35;58.51;98361.09;5023117;28;20209;-57
2022/08/04 02:25:26;;;;;;;2.47;2.27;;;;;;;21.29;58.47;98361.22;5024202;28;20729;-56
2022/08/04 02:28:08;;;;;;;2.53;2.17;;;;;;;21.27;58.16;98353.47;5021917;28;20728;-57
2022/08/04 02:30:51;;;;;;;3.33;2.20;;;;;;;21.22;58.20;98351.50;5024322;28;20245;-54
2022/08/04 02:33:24;;;;;;;6.40;2.10;;;;;;;21.19;57.86;98344.00;5024474;28;20385;-56
2022/08/04 02:35:57;;;;;;;3.03;2.70;;;;;;;21.18;58.57;98353.00;5022940;28;20214;-55
2022/08/04 02:38:30;;;;;;;2.63;2.40;;;;;;;21.17;58.67;98350.56;5022521;28;20215;-54
2022/08/04 02:41:00;;;;;;;2.60;2.07;;;;;;;21.14;58.77;98356.34;5024156;28;20289;-54
2022/08/04 02:43:29;;;;;;;2.77;2.37;;;;;;;21.05;58.57;98355.84;5023554;28;20210;-56
2022/08/04 02:45:57;;;;;;;4.53;2.07;;;;;;;21.02;58.29;98358.94;5027600;28;20682;-56
2022/08/04 02:48:26;;;;;;;3.10;2.43;;;;;;;20.96;58.93;98355.34;5021455;28;20270;-56
2022/08/04 02:50:54;;;;;;;3.40;2.13;;;;;;;21.00;58.92;98359.19;5024320;28;20199;-57
2022/08/04 02:53:22;;;;;;;2.80;2.37;;;;;;;20.91;58.52;98345.41;5022960;28;20617;-56
2022/08/04 02:55:52;;;;;;;3.03;2.20;;;;;;;20.85;58.40;98350.81;5030705;28;20198;-56
2022/08/04 02:58:21;;;;;;;3.17;2.13;;;;;;;20.89;58.82;98352.78;5028340;28;20227;-57
2022/08/04 03:00:50;;;;;;;2.20;2.00;;;;;;;20.85;58.71;98350.81;5031362;28;20402;-56
2022/08/04 03:03:27;;;;;;;6.10;2.40;;;;;;;20.81;58.85;98349.63;5026847;28;20247;-56
2022/08/04 03:06:23;;;;;;;3.73;2.30;;;;;;;20.77;59.30;98347.44;5027353;28;20210;-55
2022/08/04 03:09:29;;;;;;;3.47;2.37;;;;;;;20.74;59.01;98347.84;4984876;28;20270;-56
2022/08/04 03:12:26;;;;;;;4.00;2.17;;;;;;;20.72;58.97;98355.22;5031212;28;20202;-56
2022/08/04 03:15:24;;;;;;;4.17;2.30;;;;;;;20.70;59.45;98354.63;5027299;28;20199;-56
2022/08/04 03:18:13;;;;;;;4.27;2.43;;;;;;;20.69;59.06;98355.66;5030600;28;20191;-55
2022/08/04 03:21:13;;;;;;;3.40;2.20;;;;;;;20.70;58.88;98356.47;5027828;28;20214;-56
2022/08/04 03:24:16;;;;;;;3.50;2.10;;;;;;;20.68;58.63;98362.00;5028940;28;20726;-56
2022/08/04 03:27:26;;;;;;;3.43;2.47;;;;;;;20.60;58.82;98370.25;5023919;28;20226;-56
2022/08/04 03:30:05;;;;;;;3.07;2.10;;;;;;;20.55;58.74;98368.28;5024698;28;20237;-55
2022/08/04 03:33:11;;;;;;;4.80;2.50;;;;;;;20.48;58.98;98362.25;5027794;28;20248;-56
2022/08/04 03:36:04;;;;;;;2.50;2.20;;;;;;;20.43;59.04;98360.25;4953206;28;20213;-57
2022/08/04 03:39:09;;;;;;;3.90;2.30;;;;;;;20.41;59.21;98362.31;5025580;28;20216;-56
2022/08/04 03:42:10;;;;;;;5.30;2.20;;;;;;;20.42;59.67;98363.13;5017968;28;20225;-56
2022/08/04 03:45:06;;;;;;;2.80;2.10;;;;;;;20.42;60.32;98361.28;5029335;28;20203;-55
2022/08/04 03:47:47;;;;;;;2.23;2.03;;;;;;;20.41;60.18;98359.66;5012457;28;20210;-56
2022/08/04 03:50:40;;;;;;;2.80;2.10;;;;;;;20.43;60.02;98357.59;5026296;28;20205;-56
2022/08/04 03:53:28;;;;;;;5.13;2.40;;;;;;;20.34;60.01;98356.28;5024140;28;20204;-56
2022/08/04 03:56:29;;;;;;;3.20;2.17;;;;;;;20.29;60.28;98349.00;5025232;28;20208;-56
2022/08/04 03:59:17;;;;;;;2.80;2.20;;;;;;;20.35;60.55;98356.06;4990067;28;20734;-54
2022/08/04 04:02:05;;;;;;;2.50;1.97;;;;;;;20.30;60.68;98355.09;5029699;28;20256;-55
2022/08/04 04:04:53;;;;;;;2.33;2.10;;;;;;;20.24;60.99;98356.81;5024665;28;20252;-56
2022/08/04 04:07:45;;;;;;;4.30;2.00;;;;;;;20.31;60.02;98356.72;5026363;28;20214;-54
2022/08/04 04:10:40;;;;;;;3.27;2.20;;;;;;;20.32;59.33;98363.63;5024228;28;20210;-55
2022/08/04 04:13:31;;;;;;;3.13;2.80;;;;;;;20.30;59.76;98358.56;5024907;28;20207;-56
2022/08/04 04:16:18;;;;;;;2.13;1.93;;;;;;;20.33;59.21;98354.66;5031243;28;20197;-55
2022/08/04 04:19:20;;;;;;;2.57;2.03;;;;;;;20.39;59.42;98352.97;5023930;28;20206;-56
2022/08/04 04:22:02;;;;;;;3.30;2.07;;;;;;;20.43;59.12;98362.09;5023928;28;20204;-54
2022/08/04 04:25:07;;;;;;;2.30;2.10;;;;;;;20.48;58.20;98360.41;5028385;28;20204;-54
2022/08/04 04:27:43;;;;;;;3.57;2.10;;;;;;;20.49;58.36;98361.22;5034781;28;20197;-57
2022/08/04 04:30:17;;;;;;;2.03;1.87;;;;;;;20.48;59.15;98364.91;5029039;28;20705;-55
2022/08/04 04:33:19;;;;;;;2.10;1.90;;;;;;;20.53;58.29;98361.56;5027817;28;20216;-56
2022/08/04 04:35:59;;;;;;;4.43;2.40;;;;;;;20.57;59.25;98366.22;5013356;28;20219;-54
2022/08/04 04:38:42;;;;;;;2.30;2.07;;;;;;;20.60;59.03;98367.59;5023153;28;20221;-55
2022/08/04 04:41:27;;;;;;;2.53;2.27;;;;;;;20.63;59.89;98372.47;5026427;28;20202;-57
2022/08/04 04:44:14;;;;;;;2.40;2.20;;;;;;;20.60;59.44;98376.38;5026630;28;20207;-57
2022/08/04 04:46:45;;;;;;;2.93;2.43;;;;;;;20.63;59.82;98362.69;5021348;28;20201;-57
2022/08/04 04:49:22;;;;;;;2.87;2.27;;;;;;;20.66;58.96;98372.03;5022955;28;20227;-57
2022/08/04 04:51:52;;;;;;;2.20;2.00;;;;;;;20.77;59.13;98367.78;5028225;28;20446;-53
2022/08/04 04:54:29;;;;;;;3.80;2.10;;;;;;;20.79;59.39;98371.06;5025089;28;20251;-56
2022/08/04 04:57:04;;;;;;;2.50;2.30;;;;;;;20.84;58.40;98383.69;5023930;28;20199;-55
2022/08/04 04:59:36;;;;;;;2.10;1.90;;;;;;;20.87;58.36;98375.28;5023113;28;21046;-55
2022/08/04 05:02:24;;;;;;;5.67;2.43;;;;;;;20.90;59.20;98380.13;5024032;28;20748;-56
2022/08/04 05:05:26;;;;;;;2.83;2.27;;;;;;;20.97;58.71;98382.69;5025532;28;20263;-54
2022/08/04 05:08:08;;;;;;;5.00;2.77;;;;;;;21.05;59.05;98377.88;5022292;28;20221;-56
2022/08/04 05:10:48;;;;;;;3.00;2.07;;;;;;;21.08;58.40;98373.97;5025869;28;20202;-55
2022/08/04 05:13:34;;;;;;;3.73;2.00;;;;;;;21.09;59.01;98373.75;5023922;28;20579;-56
2022/08/04 05:16:09;;;;;;;2.17;1.97;;;;;;;21.15;58.13;98381.84;5024673;28;20278;-56
2022/08/04 05:18:40;;;;;;;2.70;2.30;;;;;;;21.21;58.52;98381.72;5025511;28;20591;-55
2022/08/04 05:21:19;;;;;;;4.20;2.20;;;;;;;21.20;58.57;98377.47;5024291;28;20713;-55
2022/08/04 05:23:51;;;;;;;2.67;2.10;;;;;;;21.26;58.04;98385.56;5023254;28;20255;-56
2022/08/04 05:26:23;;;;;;;7.43;2.30;;;;;;;21.35;58.20;98386.84;5027393;28;20227;-55
2022/08/04 05:28:55;;;;;;;10.60;2.37;;;;;;;21.37;58.22;98385.56;5027117;28;20257;-56
2022/08/04 05:31:27;;;;;;;2.40;2.17;;;;;;;21.40;59.04;98392.28;5021881;28;20282;-56
2022/08/04 05:33:56;;;;;;;2.80;2.10;;;;;;;21.44;58.75;98395.28;5023092;28;20206;-56
2022/08/04 05:36:30;;;;;;;2.40;2.20;;;;;;;21.44;57.50;98400.59;5027868;28;20204;-56
2022/08/04 05:38:58;;;;;;;2.97;1.83;;;;;;;21.47;58.68;98402.81;5023174;28;20253;-56
2022/08/04 05:41:27;;;;;;;3.43;2.30;;;;;;;21.51;58.75;98402.13;5022141;28;20191;-54
2022/08/04 05:43:54;;;;;;;4.17;2.50;;;;;;;21.54;58.40;98408.81;5024517;28;20558;-57
2022/08/04 05:46:21;;;;;;;6.13;2.87;;;;;;;21.62;57.64;98403.22;5023774;28;20227;-56
2022/08/04 05:48:50;;;;;;;3.00;2.70;;;;;;;21.67;57.41;98403.34;5023772;28;20250;-55
2022/08/04 05:51:18;;;;;;;3.10;2.60;;;;;;;21.73;57.21;98406.13;5022141;28;20203;-54
2022/08/04 05:53:46;;;;;;;38.70;5.20;;;;;;;21.77;58.24;98407.28;5023418;28;20660;-54
2022/08/04 05:56:15;;;;;;;61.33;8.03;;;;;;;21.76;58.68;98409.09;5025186;28;20648;-57
2022/08/04 05:58:44;;;;;;;25.23;5.87;;;;;;;21.78;58.46;98412.34;5023091;28;20213;-56
2022/08/04 06:01:12;;;;;;;8.93;3.40;;;;;;;21.83;57.15;98411.69;5025941;28;20214;-53
2022/08/04 06:03:42;;;;;;;6.00;2.63;;;;;;;21.88;57.98;98413.63;5024980;28;20193;-56
2022/08/04 06:06:11;;;;;;;4.73;2.37;;;;;;;21.89;58.09;98415.25;5021887;28;20293;-55
2022/08/04 06:08:38;;;;;;;62.33;6.83;;;;;;;21.94;58.16;98413.53;5023733;28;20221;-55
2022/08/04 06:11:08;;;;;;;41.60;6.23;;;;;;;22.02;58.09;98416.88;5023082;28;20205;-56
2022/08/04 06:13:42;;;;;;;60.47;8.43;;;;;;;22.11;57.81;98418.97;5024604;28;20192;-57
2022/08/04 06:16:11;;;;;;;44.87;6.07;;;;;;;22.24;57.08;98423.25;5024965;28;20306;-55
2022/08/04 06:18:40;;;;;;;52.33;6.83;;;;;;;22.36;57.42;98419.75;5029067;28;20214;-56
2022/08/04 06:21:11;;;;;;;24.57;4.30;;;;;;;22.45;56.98;98422.91;5023173;28;20191;-56
2022/08/04 06:23:40;;;;;;;62.70;6.70;;;;;;;22.53;56.35;98418.00;5019564;28;20227;-56
2022/08/04 06:26:08;;;;;;;46.90;5.40;;;;;;;22.63;55.58;98421.94;5022283;28;20555;-55
2022/08/04 06:28:55;;;;;;;41.60;4.20;;;;;;;22.74;55.52;98426.41;5025856;28;20261;-55
2022/08/04 06:31:41;;;;;;;7.33;2.33;;;;;;;22.90;54.12;98427.53;5025125;28;20554;-57
2022/08/04 06:34:12;;;;;;;44.77;4.73;;;;;;;23.14;54.67;98422.94;5022229;28;20546;-55
2022/08/04 06:36:42;;;;;;;31.93;4.80;;;;;;;23.38;53.15;98430.81;5023172;28;20548;-55
2022/08/04 06:39:10;;;;;;;50.33;6.20;;;;;;;23.60;53.05;98424.81;5021183;28;20228;-55
2022/08/04 06:41:37;;;;;;;38.67;5.00;;;;;;;23.83;52.33;98429.19;5024677;28;20201;-55
2022/08/04 06:44:07;;;;;;;5.80;2.87;;;;;;;24.06;51.35;98426.63;5022591;28;20546;-56
2022/08/04 06:46:37;;;;;;;6.10;2.87;;;;;;;24.28;50.46;98429.31;5025128;28;20208;-55
2022/08/04 06:49:24;;;;;;;7.53;2.30;;;;;;;24.50;50.08;98434.66;5028935;28;20223;-55
2022/08/04 06:51:55;;;;;;;3.70;2.43;;;;;;;24.72;49.62;98433.88;5027760;28;20262;-55
2022/08/04 06:54:22;;;;;;;3.90;2.27;;;;;;;24.94;48.81;98435.75;5028945;28;20189;-55
2022/08/04 06:56:51;;;;;;;4.40;2.63;;;;;;;25.09;49.08;98429.78;5026195;28;20650;-57
2022/08/04 06:59:19;;;;;;;8.83;2.60;;;;;;;25.26;48.88;98435.03;5022247;28;20213;-56
2022/08/04 07:01:47;;;;;;;8.27;2.57;;;;;;;25.40;48.40;98436.25;5030058;28;20208;-56
2022/08/04 07:04:13;;;;;;;4.00;2.50;;;;;;;25.52;48.54;98435.28;5028873;28;20194;-55
2022/08/04 07:07:02;;;;;;;3.33;2.10;;;;;;;25.66;48.49;98441.03;5024006;28;20271;-56
2022/08/04 07:09:28;;;;;;;17.90;2.93;;;;;;;25.78;48.00;98434.44;5022832;28;20697;-56
2022/08/04 07:11:55;;;;;;;4.97;2.47;;;;;;;25.94;46.57;98442.59;5020886;28;20205;-56
2022/08/04 07:14:22;;;;;;;6.20;2.03;;;;;;;26.06;46.75;98427.16;5024663;28;20507;-56
2022/08/04 07:16:50;;;;;;;2.73;2.13;;;;;;;26.19;46.19;98433.16;5023661;28;21552;-56
2022/08/04 07:19:17;;;;;;;3.93;2.03;;;;;;;26.36;45.11;98439.16;5023980;28;20221;-56
2022/08/04 07:21:44;;;;;;;3.63;2.27;;;;;;;26.44;45.42;98437.84;5023229;28;20220;-56
2022/08/04 07:24:12;;;;;;;7.20;2.90;;;;;;;26.54;45.85;98434.41;5022140;28;20697;-56
2022/08/04 07:26:39;;;;;;;4.33;2.77;;;;;;;26.56;45.98;98429.59;5029160;28;20216;-57
2022/08/04 07:29:06;;;;;;;6.32;2.63;;;;;;;26.66;45.81;98437.66;5028744;28;20218;-57
2022/08/04 07:31:33;;;;;;;6.03;2.97;;;;;;;26.71;45.48;98444.09;5030555;28;20564;-56
2022/08/04 07:34:01;;;;;;;5.50;3.10;;;;;;;26.78;46.03;98442.81;5030701;28;20200;-57
2022/08/04 07:36:28;;;;;;;5.63;2.83;;;;;;;26.93;44.60;98447.44;5030161;28;20216;-58
2022/08/04 07:38:55;;;;;;;2.90;2.70;;;;;;;27.03;44.73;98441.28;5028799;28;20221;-57
2022/08/04 07:41:24;;;;;;;4.57;2.70;;;;;;;27.13;45.02;98448.56;5034256;28;20196;-57
2022/08/04 07:43:53;;;;;;;7.68;3.17;;;;;;;27.19;45.65;98444.84;5031445;28;20196;-56
2022/08/04 07:46:24;;;;;;;5.18;3.17;;;;;;;27.25;45.25;98454.50;5035789;28;20200;-57
2022/08/04 07:48:51;;;;;;;5.60;3.33;;;;;;;27.21;45.01;98455.28;5033276;28;20629;-56
2022/08/04 07:51:18;;;;;;;3.90;3.20;;;;;;;27.25;45.27;98456.34;5034920;28;20193;-56
2022/08/04 07:53:48;;;;;;;4.60;3.53;;;;;;;27.32;45.14;98458.78;5035802;28;20205;-55
2022/08/04 07:56:16;;;;;;;3.90;3.33;;;;;;;27.31;44.82;98457.19;5031350;28;20191;-55
2022/08/04 07:58:44;;;;;;;8.63;3.88;;;;;;;27.30;45.75;98464.41;5030841;28;20223;-56
2022/08/04 08:01:12;;;;;;;3.53;3.00;;;;;;;27.36;44.76;98462.56;5031098;28;20210;-54
2022/08/04 08:03:40;;;;;;;3.90;3.20;;;;;;;27.33;44.97;98463.88;5034007;28;20196;-56
2022/08/04 08:06:07;;;;;;;4.68;3.33;;;;;;;27.39;44.97;98462.03;5030539;28;20555;-59
2022/08/04 08:08:37;;;;;;;6.20;3.38;;;;;;;27.50;44.74;98452.97;5031295;28;20215;-54
2022/08/04 08:11:05;;;;;;;7.40;3.57;;;;;;;27.64;44.29;98460.44;5034293;28;20288;-57
2022/08/04 08:13:32;;;;;;;6.28;3.60;;;;;;;27.71;44.44;98452.94;5026687;28;20208;-57
2022/08/04 08:16:02;;;;;;;5.28;3.35;;;;;;;27.82;43.80;98459.13;5035275;28;20202;-56
2022/08/04 08:18:29;;;;;;;6.03;3.30;;;;;;;27.84;43.22;98452.41;5035486;28;20209;-56
2022/08/04 08:20:56;;;;;;;4.07;3.40;;;;;;;27.99;43.10;98458.84;5031372;28;20192;-56
2022/08/04 08:23:24;;;;;;;5.65;3.22;;;;;;;28.03;42.06;98449.19;5029785;28;20568;-56
2022/08/04 08:25:51;;;;;;;7.05;3.38;;;;;;;28.23;42.45;98458.31;5030312;28;20590;-57
2022/08/04 08:28:18;;;;;;;4.95;3.58;;;;;;;28.29;41.67;98451.84;5015630;28;20572;-56
2022/08/04 08:30:45;;;;;;;6.10;3.00;;;;;;;28.45;42.51;98457.19;5034380;28;20206;-56
2022/08/04 08:33:16;;;;;;;6.88;3.42;;;;;;;28.73;40.53;98453.03;5029792;28;20207;-56
2022/08/04 08:35:50;;;;;;;5.55;3.10;;;;;;;28.96;40.13;98461.56;5033836;28;20856;-56
2022/08/04 08:38:21;;;;;;;5.28;3.22;;;;;;;29.05;39.62;98459.91;5032198;28;20209;-57
2022/08/04 08:40:53;;;;;;;4.03;2.38;;;;;;;29.13;38.87;98458.53;5030897;28;20548;-55
2022/08/04 08:43:35;;;;;;;2.58;2.38;;;;;;;29.20;38.56;98456.31;5026451;28;20192;-57
2022/08/04 08:46:36;;;;;;;3.03;2.53;;;;;;;29.23;37.68;98455.78;5027597;28;20203;-57
2022/08/04 08:49:20;;;;;;;2.90;2.60;;;;;;;29.33;37.65;98454.09;5019053;28;20254;-57
2022/08/04 08:52:04;;;;;;;2.65;2.45;;;;;;;29.37;37.89;98458.63;5029609;28;20278;-57
2022/08/04 08:54:54;;;;;;;3.45;2.75;;;;;;;29.54;37.96;98463.66;5024500;28;20241;-55
2022/08/04 08:57:37;;;;;;;2.78;2.47;;;;;;;29.63;37.35;98460.38;5022787;28;20208;-57
2022/08/04 09:00:15;;;;;;;7.10;2.83;;;;;;;29.72;36.58;98466.75;5026714;28;20227;-55
2022/08/04 09:03:14;;;;;;;3.15;2.47;;;;;;;29.98;36.23;98469.22;5029963;28;20921;-57
2022/08/04 09:06:09;;;;;;;2.50;2.30;;;;;;;30.07;36.18;98456.78;5029907;28;20249;-58
2022/08/04 09:09:00;;;;;;;4.68;3.00;;;;;;;30.24;35.44;98463.63;5021942;28;20287;-57
2022/08/04 09:11:35;;;;;;;5.38;2.60;;;;;;;30.26;36.04;98464.94;5020337;28;20877;-58
2022/08/04 09:14:09;;;;;;;3.92;2.42;;;;;;;30.42;35.41;98457.50;5022365;28;20215;-56
2022/08/04 09:16:41;;;;;;;2.60;2.17;;;;;;;30.52;34.54;98450.41;5025108;28;20247;-57
2022/08/04 09:19:16;;;;;;;5.18;2.80;;;;;;;30.53;34.50;98468.16;5022847;28;20319;-57
2022/08/04 09:21:53;;;;;;;3.92;2.40;;;;;;;30.54;34.52;98459.78;5020064;28;20195;-57
2022/08/04 09:24:25;;;;;;;3.67;2.58;;;;;;;30.63;35.00;98466.16;5025799;28;20210;-57
2022/08/04 09:26:58;;;;;;;2.55;2.17;;;;;;;30.76;34.47;98459.28;5025093;28;20210;-57
2022/08/04 09:29:34;;;;;;;3.60;2.67;;;;;;;30.79;34.27;98457.91;5019486;28;20562;-57
2022/08/04 09:32:08;;;;;;;3.97;2.33;;;;;;;30.98;34.20;98462.53;5029222;28;20195;-58
2022/08/04 09:34:47;;;;;;;4.45;2.58;;;;;;;31.06;34.00;98462.66;5025123;28;20237;-58
2022/08/04 09:37:23;;;;;;;4.35;2.33;;;;;;;31.20;32.70;98461.97;5027748;28;20283;-57
2022/08/04 09:40:02;;;;;;;2.72;2.20;;;;;;;31.29;33.20;98452.13;5023282;28;20569;-56
2022/08/04 09:42:38;;;;;;;3.67;2.30;;;;;;;31.38;32.70;98468.44;5020868;28;20203;-56
2022/08/04 09:45:12;;;;;;;2.70;2.50;;;;;;;31.43;32.04;98464.88;5023129;28;20528;-57
2022/08/04 09:47:47;;;;;;;2.92;2.25;;;;;;;31.48;32.70;98459.41;5023857;28;20195;-57
2022/08/04 09:50:29;;;;;;;3.03;2.45;;;;;;;31.35;32.62;98459.06;5027805;28;20748;-56
2022/08/04 09:53:03;;;;;;;3.22;2.38;;;;;;;31.40;31.84;98466.25;5024016;28;20655;-57
2022/08/04 09:55:48;;;;;;;6.57;2.60;;;;;;;31.34;32.04;98456.63;5022793;28;20541;-56
2022/08/04 09:58:24;;;;;;;2.65;2.38;;;;;;;31.41;32.66;98464.38;5022999;28;20252;-54
2022/08/04 10:00:57;;;;;;;4.60;2.30;;;;;;;31.49;32.74;98455.63;5027241;28;20195;-56
2022/08/04 10:03:26;;;;;;;6.05;2.42;;;;;;;31.51;31.71;98450.72;5019033;28;20636;-56
2022/08/04 10:06:06;;;;;;;6.95;2.28;;;;;;;31.59;31.17;98451.94;5020878;28;20211;-56
2022/08/04 10:08:56;;;;;;;3.75;1.90;;;;;;;31.70;29.49;98448.00;5027687;28;20216;-56
2022/08/04 10:11:37;;;;;;;2.20;1.90;;;;;;;31.74;29.57;98451.72;5024174;28;20224;-56
2022/08/04 10:14:18;;;;;;;2.42;1.55;;;;;;;31.91;28.71;98450.38;5022997;28;20274;-56
2022/08/04 10:16:54;;;;;;;2.50;1.70;;;;;;;31.87;29.59;98444.75;5025611;28;20204;-56
2022/08/04 10:19:27;;;;;;;3.50;1.95;;;;;;;31.98;28.71;98440.00;5024016;28;20218;-56
2022/08/04 10:22:11;;;;;;;2.53;2.05;;;;;;;31.93;28.68;98443.56;5029479;28;20214;-56
2022/08/04 10:24:53;;;;;;;2.88;1.77;;;;;;;32.14;28.66;98439.72;5024928;28;20657;-57
2022/08/04 10:27:28;;;;;;;2.42;1.75;;;;;;;32.29;28.16;98436.75;5024734;28;20210;-57
2022/08/04 10:30:01;;;;;;;3.22;1.95;;;;;;;32.38;28.89;98442.25;5023207;28;20222;-57
2022/08/04 10:32:33;;;;;;;3.85;1.75;;;;;;;32.49;27.62;98432.03;5027633;28;20192;-56
2022/08/04 10:35:10;;;;;;;3.72;1.90;;;;;;;32.58;28.17;98432.94;5020969;28;20200;-56
2022/08/04 10:37:45;;;;;;;2.28;1.52;;;;;;;32.71;26.59;98431.31;5028361;28;20196;-56
2022/08/04 10:40:39;;;;;;;1.98;1.70;;;;;;;32.72;27.67;98426.69;5028146;28;20191;-54
2022/08/04 10:43:15;;;;;;;2.17;1.80;;;;;;;32.80;28.87;98431.41;5023826;28;20207;-57
2022/08/04 10:45:47;;;;;;;2.70;1.90;;;;;;;32.82;28.15;98421.91;5031054;28;20196;-59
2022/08/04 10:48:23;;;;;;;3.33;1.98;;;;;;;32.85;28.77;98423.22;5023665;28;20212;-56
2022/08/04 10:51:02;;;;;;;3.25;1.83;;;;;;;33.03;27.82;98421.44;5029254;28;20270;-55
2022/08/04 10:53:31;;;;;;;2.88;1.70;;;;;;;33.02;27.82;98417.16;5022696;28;20192;-56
2022/08/04 10:56:04;;;;;;;4.07;1.80;;;;;;;33.01;27.77;98420.16;5024430;28;20597;-57
2022/08/04 10:58:38;;;;;;;3.47;1.77;;;;;;;32.98;26.79;98418.84;5027137;28;20220;-56
2022/08/04 11:01:12;;;;;;;3.78;1.80;;;;;;;33.06;27.47;98428.16;5026137;28;20667;-57
2022/08/04 11:03:49;;;;;;;3.40;1.95;;;;;;;33.15;27.44;98429.03;5027426;28;20188;-57
2022/08/04 11:06:18;;;;;;;2.92;1.88;;;;;;;33.12;27.50;98424.25;5028682;28;20602;-56
2022/08/04 11:08:50;;;;;;;4.18;1.90;;;;;;;33.23;27.21;98427.50;5024993;28;20731;-56
2022/08/04 11:11:27;;;;;;;3.22;2.13;;;;;;;33.23;26.79;98424.78;5024728;28;20243;-56
2022/08/04 11:14:00;;;;;;;6.00;1.88;;;;;;;33.18;27.31;98425.72;5024422;28;21071;-57
2022/08/04 11:16:32;;;;;;;3.63;1.80;;;;;;;33.27;27.24;98423.06;5026292;28;20558;-55
2022/08/04 11:19:17;;;;;;;2.60;1.75;;;;;;;33.38;27.10;98424.44;5025739;28;20212;-56
2022/08/04 11:21:55;;;;;;;1.75;1.65;;;;;;;33.51;26.15;98422.00;5031999;28;20210;-56
2022/08/04 11:24:28;;;;;;;5.90;2.20;;;;;;;33.48;27.10;98412.59;5027929;28;20187;-56
2022/08/04 11:27:00;;;;;;;3.33;2.00;;;;;;;33.52;27.57;98412.78;5028546;28;20656;-56
2022/08/04 11:29:56;;;;;;;3.83;1.63;;;;;;;33.62;25.68;98420.66;5034762;28;20225;-56
2022/08/04 11:32:34;;;;;;;2.55;1.50;;;;;;;33.66;26.01;98418.91;5029294;28;20747;-57
2022/08/04 11:35:05;;;;;;;3.25;1.48;;;;;;;33.69;27.08;98415.59;5030026;28;20567;-56
2022/08/04 11:37:42;;;;;;;2.88;1.70;;;;;;;33.84;26.37;98422.50;5026515;28;20200;-56
2022/08/04 11:40:15;;;;;;;2.70;1.60;;;;;;;33.94;25.68;98418.75;5034517;28;20635;-56
2022/08/04 11:42:53;;;;;;;1.92;1.40;;;;;;;33.99;25.18;98415.13;5012302;28;20238;-56
2022/08/04 11:45:27;;;;;;;3.10;1.38;;;;;;;34.06;25.75;98426.31;5027658;28;20208;-56
2022/08/04 11:47:59;;;;;;;3.33;1.30;;;;;;;34.02;24.36;98416.41;5028533;28;20302;-55
2022/08/04 11:50:32;;;;;;;4.80;1.33;;;;;;;34.10;24.89;98416.44;5030582;28;20278;-56
2022/08/04 11:53:02;;;;;;;2.65;1.50;;;;;;;34.19;24.76;98424.59;5026839;28;20273;-57
2022/08/04 11:55:31;;;;;;;1.30;1.20;;;;;;;34.23;24.86;98422.84;5028164;28;20192;-56
2022/08/04 11:58:00;;;;;;;6.47;1.70;;;;;;;34.18;25.98;98416.78;5029036;28;20191;-56
2022/08/04 12:00:31;;;;;;;1.85;1.40;;;;;;;34.37;24.54;98411.09;5033027;28;20640;-57
2022/08/04 12:03:19;;;;;;;2.08;1.45;;;;;;;34.41;24.29;98401.25;5027667;28;20558;-56
2022/08/04 12:05:58;;;;;;;2.00;1.80;;;;;;;34.34;25.04;98407.13;5030336;28;21511;-56
2022/08/04 12:08:40;;;;;;;2.45;1.73;;;;;;;34.38;24.33;98405.41;5033643;28;20219;-55
2022/08/04 12:11:19;;;;;;;3.03;1.60;;;;;;;34.50;25.23;98403.97;5027321;28;20215;-56
2022/08/04 12:13:57;;;;;;;3.42;1.50;;;;;;;34.44;24.27;98395.19;5028515;28;20200;-56